Time;durP1;ratioP1;P1;durP2;ratioP2;P2;SDS_P1;SDS_P2;PMS_P1;PMS_P2;Temp;Humidity;BMP_temperature;BMP_pressure;BME280_temperature;BME280_humidity;BME280_pressure;Samples;Min_cycle;Max_cycle;Signal;HPM_P1;HPM_P2
2024/04/15 00:01:51;;;;;;;5.20;2.70;;;16.20;99.90;;;;;;5481930;26;20444;-78
2024/04/15 00:04:19;;;;;;;2.43;1.90;;;16.20;99.90;;;;;;5481598;26;20456;-78
2024/04/15 00:06:47;;;;;;;1.73;1.30;;;16.10;99.90;;;;;;5481434;26;20837;-78
2024/04/15 00:09:16;;;;;;;2.00;1.90;;;16.10;99.90;;;;;;5481837;26;20992;-78
2024/04/15 00:11:44;;;;;;;1.77;1.50;;;16.10;99.90;;;;;;5481719;26;20519;-78
2024/04/15 00:14:13;;;;;;;1.83;1.47;;;16.10;99.90;;;;;;5481533;26;20445;-78
2024/04/15 00:16:38;;;;;;;1.20;1.10;;;16.10;99.90;;;;;;5481294;26;20468;-78
2024/04/15 00:19:07;;;;;;;1.20;1.20;;;16.10;99.90;;;;;;5481138;26;20886;-78
2024/04/15 00:21:33;;;;;;;1.70;1.57;;;16.10;99.90;;;;;;5481287;26;20270;-78
2024/04/15 00:24:05;;;;;;;1.40;1.30;;;16.10;99.90;;;;;;5481198;26;20452;-78
2024/04/15 00:26:31;;;;;;;2.23;1.20;;;16.20;99.90;;;;;;5480337;26;20307;-78
2024/04/15 00:28:59;;;;;;;1.40;1.17;;;16.10;99.90;;;;;;5481178;26;20444;-78
2024/04/15 00:31:25;;;;;;;1.60;1.10;;;16.20;99.90;;;;;;5481471;26;20274;-78
2024/04/15 00:33:53;;;;;;;1.60;1.50;;;16.20;99.90;;;;;;5481483;26;20452;-78
2024/04/15 00:36:19;;;;;;;1.97;1.77;;;16.20;99.90;;;;;;5481265;26;20250;-78
2024/04/15 00:38:47;;;;;;;1.33;1.23;;;16.20;99.90;;;;;;5481035;26;20455;-78
2024/04/15 00:41:16;;;;;;;2.03;1.50;;;16.20;99.90;;;;;;5480995;26;20301;-78
2024/04/15 00:43:44;;;;;;;1.30;1.20;;;16.20;99.90;;;;;;5481042;26;20580;-78
2024/04/15 00:46:10;;;;;;;1.03;1.03;;;16.20;99.90;;;;;;5480887;26;20623;-78
2024/04/15 00:48:38;;;;;;;1.80;1.70;;;16.30;99.90;;;;;;5481048;26;20444;-78
2024/04/15 00:51:04;;;;;;;1.00;1.00;;;16.30;99.90;;;;;;5480798;26;20246;-78
2024/04/15 00:53:33;;;;;;;1.53;1.23;;;16.30;99.90;;;;;;5481095;26;20444;-78
2024/04/15 00:56:02;;;;;;;4.67;2.10;;;16.30;99.90;;;;;;5481041;26;20333;-78
2024/04/15 00:58:33;;;;;;;1.67;1.57;;;16.40;99.90;;;;;;5481123;26;21007;-78
2024/04/15 01:01:00;;;;;;;1.03;1.03;;;16.40;99.90;;;;;;5481550;26;20508;-78
2024/04/15 01:03:29;;;;;;;1.33;1.10;;;16.40;99.90;;;;;;5481091;26;20444;-78
2024/04/15 01:05:55;;;;;;;1.50;1.40;;;16.40;99.90;;;;;;5480562;26;20519;-78
2024/04/15 01:08:23;;;;;;;1.10;1.10;;;16.40;99.90;;;;;;5481628;26;20569;-78
2024/04/15 01:10:49;;;;;;;1.00;1.00;;;16.40;99.90;;;;;;5481838;26;20266;-78
2024/04/15 01:13:18;;;;;;;1.37;1.27;;;16.40;99.90;;;;;;5482032;26;20553;-78
2024/04/15 01:15:47;;;;;;;1.10;1.00;;;16.40;99.90;;;;;;5481734;26;20215;-78
2024/04/15 01:18:15;;;;;;;1.50;1.30;;;16.30;99.90;;;;;;5482367;26;20464;-78
2024/04/15 01:20:41;;;;;;;1.27;1.17;;;16.30;99.90;;;;;;5481584;26;20887;-78
2024/04/15 01:23:16;;;;;;;6.83;1.20;;;16.20;99.90;;;;;;5480967;26;20499;-78
2024/04/15 01:25:44;;;;;;;1.90;1.43;;;16.20;99.90;;;;;;5480567;26;20987;-78
2024/04/15 01:28:13;;;;;;;1.43;1.00;;;16.20;99.90;;;;;;5480806;26;20516;-78
2024/04/15 01:30:39;;;;;;;0.90;0.90;;;16.10;99.90;;;;;;5480249;26;20865;-78
2024/04/15 01:33:08;;;;;;;1.23;1.10;;;16.10;99.90;;;;;;5480284;26;20504;-78
2024/04/15 01:35:34;;;;;;;1.20;1.10;;;16.00;99.90;;;;;;5480206;26;20775;-78
2024/04/15 01:38:02;;;;;;;4.57;1.60;;;16.00;99.90;;;;;;5478522;26;20472;-78
2024/04/15 01:40:28;;;;;;;0.90;0.80;;;15.90;99.90;;;;;;5480019;26;20763;-78
2024/04/15 01:42:59;;;;;;;1.27;1.17;;;15.80;99.90;;;;;;5480049;26;20451;-78
2024/04/15 01:45:25;;;;;;;1.10;0.90;;;15.80;99.90;;;;;;5479992;26;20452;-78
2024/04/15 01:47:53;;;;;;;1.10;0.90;;;15.80;99.90;;;;;;5479961;26;20550;-78
2024/04/15 01:50:20;;;;;;;1.13;0.80;;;15.80;99.90;;;;;;5479947;26;20274;-78
2024/04/15 01:52:48;;;;;;;1.10;1.00;;;15.70;99.90;;;;;;5479965;26;20837;-78
2024/04/15 01:55:14;;;;;;;1.40;1.30;;;15.70;99.90;;;;;;5480026;26;20848;-78
2024/04/15 01:57:42;;;;;;;2.30;0.70;;;15.70;99.90;;;;;;5480051;26;20565;-78
2024/04/15 02:00:12;;;;;;;0.70;0.70;;;15.80;99.90;;;;;;5479786;25;20711;-78
2024/04/15 02:02:40;;;;;;;2.63;0.80;;;15.70;99.90;;;;;;5479987;26;20597;-78
2024/04/15 02:05:07;;;;;;;1.00;0.90;;;15.70;99.90;;;;;;5479697;26;20464;-78
2024/04/15 02:07:36;;;;;;;1.87;1.10;;;15.70;99.90;;;;;;5479519;26;20549;-78
2024/04/15 02:10:03;;;;;;;1.10;0.93;;;15.70;99.90;;;;;;5479687;26;20529;-78
2024/04/15 02:12:32;;;;;;;0.70;0.70;;;15.70;99.90;;;;;;5479590;26;20448;-78
2024/04/15 02:14:58;;;;;;;2.63;1.33;;;15.60;99.90;;;;;;5480010;26;21049;-78
2024/04/15 02:17:29;;;;;;;1.07;0.67;;;15.60;99.90;;;;;;5479519;26;20588;-78
2024/04/15 02:19:55;;;;;;;1.40;1.30;;;15.70;99.90;;;;;;5479642;26;20211;-78
2024/04/15 02:22:23;;;;;;;1.70;1.07;;;15.70;99.90;;;;;;5481114;26;21081;-79
2024/04/15 02:24:49;;;;;;;0.93;0.93;;;15.70;99.90;;;;;;5481246;26;20223;-79
2024/04/15 02:27:18;;;;;;;1.00;0.73;;;15.70;99.90;;;;;;5481550;26;20456;-79
2024/04/15 02:29:43;;;;;;;1.50;1.10;;;15.70;99.90;;;;;;5481212;26;20271;-79
2024/04/15 02:32:12;;;;;;;2.23;1.20;;;15.60;99.90;;;;;;5481784;26;21077;-79
2024/04/15 02:34:42;;;;;;;1.33;1.23;;;15.60;99.90;;;;;;5481013;26;20271;-79
2024/04/15 02:37:10;;;;;;;2.10;1.47;;;15.60;99.90;;;;;;5481754;26;21063;-79
2024/04/15 02:39:36;;;;;;;1.00;0.90;;;15.60;99.90;;;;;;5481218;26;20552;-79
2024/04/15 02:42:04;;;;;;;0.70;0.70;;;15.60;99.90;;;;;;5481200;26;20440;-79
2024/04/15 02:44:30;;;;;;;0.90;0.90;;;15.60;99.90;;;;;;5481370;26;20275;-79
2024/04/15 02:46:58;;;;;;;1.27;1.17;;;15.60;99.90;;;;;;5480880;26;20805;-79
2024/04/15 02:49:24;;;;;;;2.43;1.20;;;15.60;99.90;;;;;;5483813;26;20267;-79
2024/04/15 02:51:55;;;;;;;1.43;0.77;;;15.60;99.90;;;;;;5484272;26;20522;-79
2024/04/15 02:54:21;;;;;;;1.20;0.90;;;15.60;99.90;;;;;;5484420;26;20208;-79
2024/04/15 02:56:49;;;;;;;0.80;0.80;;;15.60;99.90;;;;;;5484204;26;20460;-79
2024/04/15 02:59:15;;;;;;;0.70;0.70;;;15.60;99.90;;;;;;5484274;26;20691;-79
2024/04/15 03:01:44;;;;;;;1.60;0.90;;;15.60;99.90;;;;;;5484334;26;20548;-79
2024/04/15 03:04:09;;;;;;;1.33;0.90;;;15.60;99.90;;;;;;5484340;26;20211;-79
2024/04/15 03:06:38;;;;;;;2.17;0.80;;;15.50;99.90;;;;;;5484130;26;20568;-79
2024/04/15 03:09:08;;;;;;;0.80;0.80;;;15.50;99.90;;;;;;5483634;26;20244;-79
2024/04/15 03:11:36;;;;;;;1.00;1.00;;;15.40;99.90;;;;;;5484292;26;20444;-79
2024/04/15 03:14:02;;;;;;;1.70;1.00;;;15.40;99.90;;;;;;5484129;26;21048;-79
2024/04/15 03:16:30;;;;;;;1.57;1.37;;;15.50;99.90;;;;;;5484490;26;20476;-79
2024/04/15 03:18:56;;;;;;;1.03;0.93;;;15.50;99.90;;;;;;5484713;26;20211;-79
2024/04/15 03:21:25;;;;;;;2.00;0.90;;;15.50;99.90;;;;;;5485246;26;20557;-79
2024/04/15 03:23:50;;;;;;;1.10;1.00;;;15.40;99.90;;;;;;5485163;26;20211;-79
2024/04/15 03:26:21;;;;;;;0.90;0.90;;;15.40;99.90;;;;;;5484793;26;20565;-79
2024/04/15 03:28:47;;;;;;;2.20;0.90;;;15.40;99.90;;;;;;5485195;26;20266;-79
2024/04/15 03:31:15;;;;;;;1.00;0.90;;;15.40;99.90;;;;;;5484911;26;20440;-79
2024/04/15 03:33:41;;;;;;;1.07;0.83;;;15.40;99.90;;;;;;5484683;26;20270;-79
2024/04/15 03:36:10;;;;;;;1.00;0.90;;;15.40;99.90;;;;;;5484597;26;20569;-79
2024/04/15 03:38:39;;;;;;;0.90;0.80;;;15.30;99.90;;;;;;5483948;26;20335;-79
2024/04/15 03:41:08;;;;;;;1.20;1.10;;;15.30;99.90;;;;;;5483725;26;20448;-79
2024/04/15 03:43:36;;;;;;;1.23;0.80;;;15.30;99.90;;;;;;5483901;26;20485;-79
2024/04/15 03:46:05;;;;;;;1.23;0.90;;;15.30;99.90;;;;;;5483886;26;20968;-79
2024/04/15 03:48:31;;;;;;;2.40;1.20;;;15.20;99.90;;;;;;5483409;26;20448;-79
2024/04/15 03:50:59;;;;;;;1.00;1.00;;;15.20;99.90;;;;;;5483010;26;20456;-79
2024/04/15 03:53:25;;;;;;;1.17;1.17;;;15.20;99.90;;;;;;5482864;26;20504;-79
2024/04/15 03:55:54;;;;;;;1.67;0.90;;;15.20;99.90;;;;;;5483734;26;20564;-79
2024/04/15 03:58:20;;;;;;;1.17;0.90;;;15.20;99.90;;;;;;5484199;26;20257;-79
2024/04/15 04:00:51;;;;;;;1.00;0.97;;;15.20;99.90;;;;;;5482962;26;21017;-79
2024/04/15 04:03:17;;;;;;;3.37;1.20;;;15.10;99.90;;;;;;5484570;26;20293;-79
2024/04/15 04:05:45;;;;;;;0.80;0.80;;;15.10;99.90;;;;;;5484353;26;21045;-79
2024/04/15 04:08:11;;;;;;;1.13;1.03;;;15.10;99.90;;;;;;5484333;26;20461;-79
2024/04/15 04:10:40;;;;;;;0.87;0.80;;;15.10;99.90;;;;;;5484701;26;20456;-79
2024/04/15 04:13:05;;;;;;;1.80;1.00;;;15.10;99.90;;;;;;5484248;26;20330;-79
2024/04/15 04:15:39;;;;;;;1.23;1.10;;;15.10;99.90;;;;;;5484627;26;20803;-79
2024/04/15 04:18:07;;;;;;;6.73;1.00;;;15.10;99.90;;;;;;5485272;26;20335;-79
2024/04/15 04:20:36;;;;;;;0.90;0.90;;;15.10;99.90;;;;;;5486975;26;20487;-79
2024/04/15 04:23:03;;;;;;;1.63;1.10;;;15.10;99.90;;;;;;5487353;26;20547;-79
2024/04/15 04:25:31;;;;;;;0.90;0.90;;;15.00;99.90;;;;;;5490174;26;20497;-79
2024/04/15 04:27:57;;;;;;;2.60;0.90;;;15.00;99.90;;;;;;5489337;26;20553;-79
2024/04/15 04:30:25;;;;;;;1.20;1.10;;;15.00;99.90;;;;;;5488811;26;20448;-79
2024/04/15 04:32:52;;;;;;;0.60;0.60;;;15.00;99.90;;;;;;5488402;26;20271;-79
2024/04/15 04:35:23;;;;;;;0.70;0.70;;;15.00;99.90;;;;;;5485585;26;20456;-79
2024/04/15 04:37:49;;;;;;;0.80;0.80;;;14.90;99.90;;;;;;5481939;26;20464;-78
2024/04/15 04:40:17;;;;;;;1.33;1.23;;;14.90;99.90;;;;;;5482450;26;20543;-78
2024/04/15 04:42:43;;;;;;;1.17;0.80;;;14.90;99.90;;;;;;5481960;26;20215;-78
2024/04/15 04:45:11;;;;;;;4.97;1.00;;;14.90;99.90;;;;;;5482754;26;20452;-78
2024/04/15 04:47:37;;;;;;;0.93;0.83;;;14.90;99.90;;;;;;5482386;26;20223;-78
2024/04/15 04:50:06;;;;;;;0.83;0.83;;;14.90;99.90;;;;;;5482287;26;20565;-78
2024/04/15 04:52:35;;;;;;;1.20;1.10;;;14.80;99.90;;;;;;5481910;26;20274;-78
2024/04/15 04:55:03;;;;;;;0.77;0.77;;;14.80;99.90;;;;;;5482592;26;20501;-78
2024/04/15 04:57:29;;;;;;;1.37;1.00;;;14.80;99.90;;;;;;5481939;26;20464;-78
2024/04/15 04:59:57;;;;;;;1.13;1.03;;;14.80;99.90;;;;;;5481830;26;21051;-78
2024/04/15 05:02:24;;;;;;;3.07;0.90;;;14.70;99.90;;;;;;5481396;26;20248;-78
2024/04/15 05:04:53;;;;;;;1.97;1.07;;;14.80;99.90;;;;;;5481389;26;20456;-78
2024/04/15 05:07:19;;;;;;;1.93;0.83;;;14.80;99.90;;;;;;5481712;26;20572;-78
2024/04/15 05:09:50;;;;;;;1.13;0.80;;;14.80;99.90;;;;;;5481494;26;20448;-78
2024/04/15 05:12:15;;;;;;;1.00;0.77;;;14.80;99.90;;;;;;5481401;26;20318;-78
2024/04/15 05:14:44;;;;;;;0.70;0.70;;;14.80;99.90;;;;;;5482216;26;20867;-78
2024/04/15 05:17:10;;;;;;;1.67;0.90;;;14.80;99.90;;;;;;5482299;26;20264;-78
2024/04/15 05:19:39;;;;;;;2.00;0.70;;;14.80;99.90;;;;;;5482577;26;20452;-78
2024/04/15 05:22:04;;;;;;;1.23;0.50;;;14.80;99.90;;;;;;5482740;26;20580;-78
2024/04/15 05:24:33;;;;;;;3.63;0.90;;;14.80;99.90;;;;;;5482726;26;20448;-78
2024/04/15 05:27:01;;;;;;;0.90;0.80;;;14.80;99.90;;;;;;5482841;26;20820;-78
2024/04/15 05:29:29;;;;;;;1.93;0.90;;;14.80;99.90;;;;;;5482851;26;20601;-78
2024/04/15 05:31:58;;;;;;;3.23;0.70;;;14.70;99.90;;;;;;5482725;26;20582;-78
2024/04/15 05:34:24;;;;;;;1.13;0.50;;;14.70;99.90;;;;;;5483078;26;20586;-78
2024/04/15 05:36:52;;;;;;;1.40;0.60;;;14.60;99.90;;;;;;5483583;26;20468;-79
2024/04/15 05:39:18;;;;;;;0.70;0.70;;;14.50;99.90;;;;;;5482806;26;20827;-79
2024/04/15 05:41:46;;;;;;;0.80;0.77;;;14.40;99.90;;;;;;5482936;26;20452;-79
2024/04/15 05:44:14;;;;;;;0.63;0.60;;;14.30;99.90;;;;;;5483243;26;20666;-79
2024/04/15 05:46:51;;;;;;;0.77;0.73;;;14.20;99.90;;;;;;5484788;26;20514;-79
2024/04/15 05:49:16;;;;;;;1.13;0.93;;;14.10;99.90;;;;;;5482645;26;20959;-79
2024/04/15 05:51:45;;;;;;;0.70;0.70;;;14.20;99.90;;;;;;5482687;26;20512;-79
2024/04/15 05:54:11;;;;;;;0.40;0.40;;;14.10;99.90;;;;;;5483026;26;20339;-79
2024/04/15 05:56:40;;;;;;;3.53;0.80;;;14.20;99.90;;;;;;5481962;26;20495;-79
2024/04/15 05:59:06;;;;;;;0.80;0.80;;;14.20;99.90;;;;;;5482135;26;20257;-79
2024/04/15 06:01:37;;;;;;;6.70;0.90;;;14.20;99.90;;;;;;5482787;26;20957;-79
2024/04/15 06:04:02;;;;;;;3.80;1.00;;;14.20;99.90;;;;;;5482841;26;20560;-79
2024/04/15 06:06:31;;;;;;;0.67;0.67;;;14.20;99.90;;;;;;5482098;26;20569;-79
2024/04/15 06:08:57;;;;;;;2.63;0.83;;;14.30;99.90;;;;;;5482185;26;20274;-79
2024/04/15 06:11:25;;;;;;;1.50;0.90;;;14.30;99.90;;;;;;5481947;26;20561;-79
2024/04/15 06:13:51;;;;;;;1.00;0.77;;;14.40;99.90;;;;;;5482341;26;20259;-79
2024/04/15 06:16:19;;;;;;;2.27;0.93;;;14.40;99.90;;;;;;5481961;26;20553;-79
2024/04/15 06:18:48;;;;;;;0.80;0.80;;;14.40;99.90;;;;;;5479856;26;20278;-79
2024/04/15 06:21:16;;;;;;;0.57;0.57;;;14.40;99.90;;;;;;5481775;26;20448;-79
2024/04/15 06:23:43;;;;;;;0.60;0.60;;;14.40;99.90;;;;;;5480638;26;20785;-79
2024/04/15 06:26:11;;;;;;;0.93;0.63;;;14.40;99.90;;;;;;5481220;26;20453;-79
2024/04/15 06:28:37;;;;;;;1.70;0.70;;;14.30;99.90;;;;;;5481436;26;20563;-79
2024/04/15 06:31:05;;;;;;;1.40;0.67;;;14.30;99.90;;;;;;5479514;26;20460;-78
2024/04/15 06:33:31;;;;;;;1.80;1.00;;;14.30;99.90;;;;;;5479335;26;20633;-78
2024/04/15 06:36:02;;;;;;;0.70;0.60;;;14.30;99.90;;;;;;5479800;26;20553;-77
2024/04/15 06:38:28;;;;;;;0.80;0.80;;;14.10;99.90;;;;;;5478986;26;20272;-77
2024/04/15 06:40:56;;;;;;;1.00;0.80;;;13.90;99.90;;;;;;5479136;26;20444;-77
2024/04/15 06:43:22;;;;;;;0.70;0.70;;;13.90;99.90;;;;;;5479060;26;20262;-77
2024/04/15 06:45:50;;;;;;;4.37;0.70;;;13.90;99.90;;;;;;5478925;26;20569;-77
2024/04/15 06:48:16;;;;;;;0.60;0.60;;;13.80;99.90;;;;;;5478790;26;20222;-77
2024/04/15 06:50:44;;;;;;;0.93;0.80;;;13.90;99.90;;;;;;5478807;26;20561;-77
2024/04/15 06:53:13;;;;;;;4.53;0.60;;;13.90;99.90;;;;;;5478788;26;20241;-77
2024/04/15 06:55:41;;;;;;;1.00;0.90;;;13.90;99.90;;;;;;5479031;26;20437;-77
2024/04/15 06:58:07;;;;;;;2.80;0.70;;;14.00;99.90;;;;;;5478505;26;20578;-77
2024/04/15 07:00:36;;;;;;;3.23;0.80;;;14.10;99.90;;;;;;5478597;26;20459;-77
2024/04/15 07:03:01;;;;;;;0.93;0.70;;;14.00;99.90;;;;;;5478578;26;20704;-77
2024/04/15 07:05:30;;;;;;;0.60;0.60;;;14.00;99.90;;;;;;5478778;26;20448;-77
2024/04/15 07:07:56;;;;;;;0.70;0.70;;;14.10;99.90;;;;;;5478872;26;20840;-77
2024/04/15 07:10:27;;;;;;;1.23;0.80;;;14.10;99.90;;;;;;5478798;26;20436;-77
2024/04/15 07:12:52;;;;;;;0.70;0.70;;;14.20;99.90;;;;;;5478785;26;20301;-77
2024/04/15 07:15:21;;;;;;;1.07;0.70;;;14.20;99.90;;;;;;5478360;26;20949;-77
2024/04/15 07:17:47;;;;;;;1.60;0.93;;;14.10;99.90;;;;;;5478670;26;20339;-77
2024/04/15 07:20:15;;;;;;;1.27;0.70;;;14.20;99.90;;;;;;5478232;26;20448;-77
2024/04/15 07:22:41;;;;;;;1.10;0.67;;;14.10;99.90;;;;;;5478666;26;20608;-77
2024/04/15 07:25:09;;;;;;;1.20;0.70;;;14.10;99.90;;;;;;5478331;26;20528;-77
2024/04/15 07:27:39;;;;;;;0.73;0.73;;;14.20;99.90;;;;;;5478119;26;20275;-77
2024/04/15 07:30:08;;;;;;;1.97;0.80;;;14.20;99.90;;;;;;5478147;26;20444;-77
2024/04/15 07:32:34;;;;;;;1.70;0.77;;;14.20;99.90;;;;;;5478244;26;20520;-77
2024/04/15 07:35:02;;;;;;;2.00;1.00;;;14.20;99.90;;;;;;5479277;26;20564;-77
2024/04/15 07:37:28;;;;;;;2.10;1.20;;;14.30;99.90;;;;;;5481986;26;20309;-77
2024/04/15 07:39:56;;;;;;;4.60;1.00;;;14.40;99.90;;;;;;5481967;26;20443;-77
2024/04/15 07:42:22;;;;;;;1.27;0.83;;;14.50;99.90;;;;;;5481691;26;20215;-77
2024/04/15 07:44:53;;;;;;;1.97;0.67;;;14.60;99.90;;;;;;5482129;26;20553;-77
2024/04/15 07:47:19;;;;;;;2.00;1.70;;;14.70;99.90;;;;;;5481710;26;20219;-77
2024/04/15 07:49:48;;;;;;;0.70;0.70;;;14.90;99.90;;;;;;5481622;26;20452;-77
2024/04/15 07:52:14;;;;;;;1.67;0.90;;;15.20;99.90;;;;;;5481663;26;21053;-79
2024/04/15 07:54:42;;;;;;;0.80;0.80;;;15.50;99.90;;;;;;5481804;26;20444;-79
2024/04/15 07:57:10;;;;;;;5.07;1.20;;;15.80;99.90;;;;;;5482594;26;20335;-78
2024/04/15 07:59:38;;;;;;;1.30;1.20;;;15.90;99.90;;;;;;5482677;26;20511;-78
2024/04/15 08:02:06;;;;;;;2.00;0.80;;;15.90;99.90;;;;;;5482645;26;20523;-78
2024/04/15 08:04:35;;;;;;;0.80;0.80;;;15.80;99.90;;;;;;5482978;26;20440;-78
2024/04/15 08:07:01;;;;;;;0.97;0.80;;;15.70;99.90;;;;;;5483440;26;20520;-78
2024/04/15 08:09:29;;;;;;;2.30;0.83;;;15.60;99.90;;;;;;5482795;26;20452;-78
2024/04/15 08:11:55;;;;;;;2.40;0.70;;;15.60;99.90;;;;;;5482921;26;20320;-78
2024/04/15 08:14:23;;;;;;;0.97;0.90;;;15.60;99.90;;;;;;5481860;26;20452;-78
2024/04/15 08:16:49;;;;;;;2.03;0.90;;;15.60;99.90;;;;;;5482220;26;20274;-79
2024/04/15 08:19:20;;;;;;;1.37;1.20;;;15.50;99.90;;;;;;5481749;26;20544;-79
2024/04/15 08:21:46;;;;;;;0.80;0.80;;;15.60;99.90;;;;;;5482088;26;20331;-79
2024/04/15 08:24:15;;;;;;;1.43;1.13;;;15.60;99.90;;;;;;5481824;26;20519;-79
2024/04/15 08:26:41;;;;;;;2.20;1.10;;;15.60;99.90;;;;;;5481561;26;20527;-79
2024/04/15 08:29:10;;;;;;;2.80;1.10;;;15.70;99.90;;;;;;5482042;26;20557;-79
2024/04/15 08:31:35;;;;;;;2.07;1.20;;;15.80;99.90;;;;;;5481619;26;20219;-77
2024/04/15 08:34:04;;;;;;;1.60;1.13;;;15.80;99.90;;;;;;5481690;26;20447;-78
2024/04/15 08:36:32;;;;;;;2.10;1.20;;;15.70;99.90;;;;;;5481762;26;20315;-78
2024/04/15 08:39:01;;;;;;;1.30;0.90;;;15.70;99.90;;;;;;5481459;26;20568;-78
2024/04/15 08:41:31;;;;;;;2.87;1.20;;;15.70;99.90;;;;;;5481343;26;20464;-78
2024/04/15 08:44:03;;;;;;;2.00;0.93;;;15.70;99.90;;;;;;5481662;26;20515;-78
2024/04/15 08:46:34;;;;;;;3.20;1.20;;;15.70;99.90;;;;;;5481397;26;20452;-79
2024/04/15 08:49:00;;;;;;;1.70;0.93;;;15.80;99.90;;;;;;5481603;26;20507;-78
2024/04/15 08:51:28;;;;;;;5.50;0.90;;;15.90;99.90;;;;;;5482562;26;20553;-78
2024/04/15 08:53:56;;;;;;;1.80;1.00;;;15.90;99.90;;;;;;5483856;26;20339;-78
2024/04/15 08:56:26;;;;;;;4.00;1.23;;;16.00;99.90;;;;;;5484167;26;20528;-78
2024/04/15 08:58:56;;;;;;;1.13;0.77;;;16.20;99.90;;;;;;5483393;26;21032;-78
2024/04/15 09:01:24;;;;;;;0.60;0.60;;;16.50;99.90;;;;;;5481500;26;21028;-78
2024/04/15 09:03:50;;;;;;;0.97;0.90;;;17.00;99.90;;;;;;5481651;26;20471;-78
2024/04/15 09:06:19;;;;;;;1.23;1.13;;;17.70;99.90;;;;;;5481163;26;21085;-78
2024/04/15 09:08:45;;;;;;;8.67;1.07;;;18.20;99.90;;;;;;5481476;26;20511;-78
2024/04/15 09:11:19;;;;;;;2.57;1.27;;;18.40;99.90;;;;;;5481379;26;20536;-78
2024/04/15 09:13:45;;;;;;;1.50;1.10;;;18.40;99.90;;;;;;5481030;26;20504;-78
2024/04/15 09:16:14;;;;;;;1.53;1.00;;;18.40;99.90;;;;;;5481293;26;20556;-78
2024/04/15 09:18:41;;;;;;;2.43;0.93;;;18.30;99.90;;;;;;5480918;26;20314;-79
2024/04/15 09:21:10;;;;;;;1.77;1.30;;;18.20;99.90;;;;;;5481042;26;20456;-79
2024/04/15 09:23:36;;;;;;;2.30;0.90;;;18.00;99.90;;;;;;5481015;26;20440;-79
2024/04/15 09:26:05;;;;;;;3.83;1.17;;;17.70;99.90;;;;;;5481046;26;21032;-79
2024/04/15 09:28:33;;;;;;;0.80;0.80;;;17.50;99.90;;;;;;5480592;26;20291;-78
2024/04/15 09:31:01;;;;;;;8.83;1.73;;;17.40;99.90;;;;;;5480948;26;20503;-78
2024/04/15 09:33:27;;;;;;;2.87;1.00;;;17.30;99.90;;;;;;5480362;26;20515;-78
2024/04/15 09:35:56;;;;;;;2.30;0.70;;;17.20;99.90;;;;;;5480509;26;20444;-78
2024/04/15 09:38:24;;;;;;;1.07;0.73;;;17.10;99.90;;;;;;5480969;26;20266;-78
2024/04/15 09:40:54;;;;;;;1.30;1.20;;;17.00;99.90;;;;;;5480473;26;20447;-78
2024/04/15 09:43:19;;;;;;;3.27;1.00;;;16.90;99.90;;;;;;5480837;26;20511;-77
2024/04/15 09:45:52;;;;;;;1.27;1.00;;;16.90;99.90;;;;;;5481006;26;20781;-78
2024/04/15 09:48:22;;;;;;;0.83;0.70;;;17.00;99.90;;;;;;5480132;26;20278;-78
2024/04/15 09:50:55;;;;;;;1.97;0.70;;;17.00;99.90;;;;;;5480124;26;20840;-78
2024/04/15 09:53:30;;;;;;;2.60;0.80;;;17.10;99.90;;;;;;5480179;26;20504;-78
2024/04/15 09:56:05;;;;;;;0.60;0.60;;;17.10;99.90;;;;;;5480270;26;21002;-78
2024/04/15 09:58:34;;;;;;;1.27;0.70;;;17.20;99.90;;;;;;5479181;26;20496;-78
2024/04/15 10:01:08;;;;;;;1.13;0.80;;;17.20;99.90;;;;;;5479800;26;20455;-78
2024/04/15 10:03:37;;;;;;;1.63;1.57;;;17.20;99.90;;;;;;5479990;26;20582;-78
2024/04/15 10:06:08;;;;;;;0.70;0.70;;;17.30;99.90;;;;;;5480302;26;21042;-78
2024/04/15 10:08:35;;;;;;;0.70;0.70;;;17.30;99.90;;;;;;5481276;26;20532;-78
2024/04/15 10:11:03;;;;;;;0.70;0.70;;;17.40;99.90;;;;;;5482005;26;20456;-78
2024/04/15 10:13:29;;;;;;;0.97;0.70;;;17.60;99.90;;;;;;5480773;26;21033;-78
2024/04/15 10:16:04;;;;;;;2.30;0.80;;;17.60;99.90;;;;;;5480549;26;20557;-78
2024/04/15 10:18:30;;;;;;;0.70;0.70;;;17.60;99.90;;;;;;5480009;26;20722;-78
2024/04/15 10:20:59;;;;;;;0.80;0.70;;;17.40;99.90;;;;;;5480027;26;20560;-78
2024/04/15 10:23:28;;;;;;;4.50;0.83;;;17.30;99.90;;;;;;5479934;26;20446;-78
2024/04/15 10:25:56;;;;;;;1.77;0.90;;;17.20;99.90;;;;;;5479469;26;20500;-78
2024/04/15 10:28:22;;;;;;;0.97;0.97;;;17.00;99.90;;;;;;5479486;26;20547;-78
2024/04/15 10:30:51;;;;;;;0.80;0.80;;;16.80;99.90;;;;;;5479309;26;20440;-78
2024/04/15 10:33:20;;;;;;;0.80;0.70;;;16.70;99.90;;;;;;5479650;26;20219;-78
2024/04/15 10:35:53;;;;;;;0.97;0.77;;;16.60;99.90;;;;;;5479196;26;20440;-78
2024/04/15 10:38:20;;;;;;;0.87;0.63;;;16.60;99.90;;;;;;5479644;26;21049;-78
2024/04/15 10:40:49;;;;;;;1.33;1.13;;;16.50;99.90;;;;;;5479698;26;20452;-78
2024/04/15 10:43:16;;;;;;;1.63;0.80;;;16.40;99.90;;;;;;5479100;26;20448;-78
2024/04/15 10:45:45;;;;;;;1.13;0.80;;;16.30;99.90;;;;;;5479949;26;20503;-78
2024/04/15 10:48:10;;;;;;;0.90;0.80;;;16.20;99.90;;;;;;5479517;26;20590;-78
2024/04/15 10:50:42;;;;;;;1.17;0.90;;;16.20;99.90;;;;;;5479331;26;20440;-78
2024/04/15 10:53:08;;;;;;;1.30;1.00;;;16.20;99.90;;;;;;5479701;26;20174;-78
2024/04/15 10:55:36;;;;;;;1.37;1.10;;;16.20;99.90;;;;;;5479002;26;20494;-78
2024/04/15 10:58:10;;;;;;;1.07;0.70;;;16.40;99.90;;;;;;5478885;26;20572;-78
2024/04/15 11:00:36;;;;;;;2.00;1.30;;;16.60;99.90;;;;;;5479280;26;20578;-78
2024/04/15 11:03:07;;;;;;;0.90;0.80;;;16.80;99.90;;;;;;5479463;26;20456;-78
2024/04/15 11:05:33;;;;;;;0.70;0.70;;;16.90;99.90;;;;;;5479540;26;20638;-78
2024/04/15 11:08:05;;;;;;;0.90;0.80;;;16.90;99.90;;;;;;5478970;26;20576;-78
2024/04/15 11:10:31;;;;;;;0.60;0.60;;;17.00;99.90;;;;;;5482082;26;20231;-78
2024/04/15 11:13:00;;;;;;;0.93;0.70;;;16.90;99.90;;;;;;5482466;26;20448;-78
2024/04/15 11:15:26;;;;;;;0.80;0.80;;;16.90;99.90;;;;;;5482442;26;20513;-78
2024/04/15 11:17:56;;;;;;;1.50;0.77;;;16.80;99.90;;;;;;5482727;26;20920;-78
2024/04/15 11:20:23;;;;;;;0.80;0.80;;;16.70;99.90;;;;;;5482685;26;20215;-78
2024/04/15 11:22:52;;;;;;;4.20;0.80;;;16.50;99.90;;;;;;5482615;26;20502;-78
2024/04/15 11:25:21;;;;;;;1.53;0.73;;;16.50;99.90;;;;;;5482462;26;20507;-78
2024/04/15 11:27:53;;;;;;;2.87;1.10;;;16.40;99.90;;;;;;5481999;26;20468;-78
2024/04/15 11:30:21;;;;;;;1.00;0.97;;;16.30;99.90;;;;;;5483683;26;20456;-79
2024/04/15 11:32:50;;;;;;;4.77;1.07;;;16.00;99.90;;;;;;5484075;26;20452;-79
2024/04/15 11:35:16;;;;;;;3.63;0.70;;;15.60;99.90;;;;;;5484534;26;20436;-79
2024/04/15 11:37:45;;;;;;;0.70;0.70;;;15.30;99.90;;;;;;5485022;26;20904;-79
2024/04/15 11:40:12;;;;;;;2.33;0.97;;;15.00;99.90;;;;;;5484535;26;20496;-79
2024/04/15 11:42:43;;;;;;;1.00;1.00;;;14.80;99.90;;;;;;5484837;26;20519;-80
2024/04/15 11:45:14;;;;;;;2.80;1.00;;;14.40;99.90;;;;;;5485103;26;20408;-79
2024/04/15 11:47:42;;;;;;;0.80;0.80;;;14.30;99.90;;;;;;5485881;26;20584;-80
2024/04/15 11:50:10;;;;;;;1.00;1.00;;;14.10;99.90;;;;;;5485832;26;20519;-80
2024/04/15 11:52:39;;;;;;;1.00;1.00;;;14.00;99.90;;;;;;5485517;26;20459;-80
2024/04/15 11:55:16;;;;;;;3.70;1.20;;;14.10;99.90;;;;;;5486104;26;20508;-80
2024/04/15 11:57:47;;;;;;;2.87;0.97;;;14.30;99.90;;;;;;5485960;26;20503;-80
2024/04/15 12:00:14;;;;;;;1.77;1.67;;;14.40;99.90;;;;;;5486208;26;20504;-80
2024/04/15 12:02:42;;;;;;;1.77;1.17;;;14.50;99.90;;;;;;5486028;26;20487;-80
2024/04/15 12:05:10;;;;;;;1.00;0.90;;;14.60;99.90;;;;;;5485697;26;20606;-80
2024/04/15 12:07:40;;;;;;;2.43;1.10;;;14.70;99.90;;;;;;5488619;26;20472;-81
2024/04/15 12:10:07;;;;;;;1.13;0.87;;;14.70;99.90;;;;;;5490750;26;20537;-81
2024/04/15 12:12:37;;;;;;;3.90;1.63;;;14.70;99.90;;;;;;5492480;26;20972;-80
2024/04/15 12:15:09;;;;;;;1.97;0.93;;;14.70;99.90;;;;;;5494314;26;20499;-80
2024/04/15 12:17:38;;;;;;;1.40;1.30;;;14.70;99.90;;;;;;5492677;26;20573;-80
2024/04/15 12:20:05;;;;;;;2.27;1.10;;;14.80;99.90;;;;;;5487523;26;20444;-79
2024/04/15 12:22:33;;;;;;;1.30;1.20;;;14.90;99.90;;;;;;5481930;26;20452;-79
2024/04/15 12:25:00;;;;;;;1.30;1.20;;;15.00;99.90;;;;;;5483107;26;20557;-79
2024/04/15 12:27:28;;;;;;;1.77;1.23;;;15.20;99.90;;;;;;5482945;26;20499;-79
2024/04/15 12:29:54;;;;;;;2.70;1.20;;;15.30;99.90;;;;;;5482961;26;20586;-79
2024/04/15 12:32:25;;;;;;;2.30;1.10;;;15.40;99.90;;;;;;5482855;26;20455;-79
2024/04/15 12:34:51;;;;;;;1.20;1.10;;;15.40;99.90;;;;;;5482607;26;20323;-80
2024/04/15 12:37:19;;;;;;;1.37;1.13;;;15.40;99.90;;;;;;5483454;26;20456;-80
2024/04/15 12:39:47;;;;;;;1.47;1.00;;;15.40;99.90;;;;;;5482654;26;20211;-80
2024/04/15 12:42:15;;;;;;;1.23;1.13;;;15.20;99.90;;;;;;5483084;26;20986;-80
2024/04/15 12:44:41;;;;;;;1.60;1.50;;;15.00;99.90;;;;;;5484021;26;20460;-80
2024/04/15 12:47:09;;;;;;;3.47;1.30;;;14.90;99.90;;;;;;5484089;26;20579;-80
2024/04/15 12:49:38;;;;;;;1.57;0.90;;;14.80;99.90;;;;;;5484297;26;20271;-80
2024/04/15 12:52:07;;;;;;;4.90;1.87;;;15.00;99.90;;;;;;5484805;26;21060;-79